sensor_id;sensor_type;location;lat;lon;timestamp;pressure;altitude;pressure_sealevel;temperature;humidity
43488;BME280;29078;41.932;25.554;2023-03-21T00:00:36;99546.56;;;11.20;52.95
43488;BME280;29078;41.932;25.554;2023-03-21T00:03:02;99551.03;;;11.19;52.78
43488;BME280;29078;41.932;25.554;2023-03-21T00:05:28;99551.88;;;11.20;52.91
43488;BME280;29078;41.932;25.554;2023-03-21T00:07:53;99507.72;;;10.91;52.36
43488;BME280;29078;41.932;25.554;2023-03-21T00:10:19;99551.75;;;11.13;52.28
43488;BME280;29078;41.932;25.554;2023-03-21T00:12:44;99557.84;;;11.13;52.87
43488;BME280;29078;41.932;25.554;2023-03-21T00:15:11;99550.72;;;11.14;52.44
43488;BME280;29078;41.932;25.554;2023-03-21T00:17:37;99540.91;;;11.08;52.77
43488;BME280;29078;41.932;25.554;2023-03-21T00:20:05;99502.34;;;10.84;52.33
43488;BME280;29078;41.932;25.554;2023-03-21T00:22:33;99473.81;;;10.65;51.73
43488;BME280;29078;41.932;25.554;2023-03-21T00:25:00;99487.47;;;10.68;52.11
43488;BME280;29078;41.932;25.554;2023-03-21T00:27:25;99551.63;;;11.06;52.82
43488;BME280;29078;41.932;25.554;2023-03-21T00:29:52;99466.88;;;10.49;52.56
43488;BME280;29078;41.932;25.554;2023-03-21T00:32:19;99553.91;;;10.95;52.54
43488;BME280;29078;41.932;25.554;2023-03-21T00:34:45;99565.56;;;10.86;52.88
43488;BME280;29078;41.932;25.554;2023-03-21T00:37:11;99495.91;;;10.49;52.75
43488;BME280;29078;41.932;25.554;2023-03-21T00:39:41;99512.03;;;10.54;52.86
43488;BME280;29078;41.932;25.554;2023-03-21T00:42:08;99456.44;;;10.33;52.68
43488;BME280;29078;41.932;25.554;2023-03-21T00:44:34;99517.09;;;10.78;52.66
43488;BME280;29078;41.932;25.554;2023-03-21T00:47:03;99530.66;;;10.90;52.19
43488;BME280;29078;41.932;25.554;2023-03-21T00:49:30;99527.66;;;10.93;52.58
43488;BME280;29078;41.932;25.554;2023-03-21T00:51:59;99516.56;;;10.98;52.45
43488;BME280;29078;41.932;25.554;2023-03-21T00:54:25;99518.75;;;10.94;52.77
43488;BME280;29078;41.932;25.554;2023-03-21T00:56:51;99521.38;;;10.94;52.26
43488;BME280;29078;41.932;25.554;2023-03-21T00:59:16;99434.28;;;10.42;52.58
43488;BME280;29078;41.932;25.554;2023-03-21T01:01:42;99453.59;;;10.57;52.24
43488;BME280;29078;41.932;25.554;2023-03-21T01:04:07;99518.56;;;10.96;52.58
43488;BME280;29078;41.932;25.554;2023-03-21T01:06:38;99515.09;;;10.95;52.73
43488;BME280;29078;41.932;25.554;2023-03-21T01:09:04;99508.34;;;10.93;52.80
43488;BME280;29078;41.932;25.554;2023-03-21T01:11:30;99506.72;;;10.92;52.82
43488;BME280;29078;41.932;25.554;2023-03-21T01:13:56;99508.09;;;10.88;52.81
43488;BME280;29078;41.932;25.554;2023-03-21T01:16:22;99503.06;;;10.93;52.50
43488;BME280;29078;41.932;25.554;2023-03-21T01:18:47;99460.44;;;10.66;53.04
43488;BME280;29078;41.932;25.554;2023-03-21T01:21:13;99490.69;;;10.93;53.33
43488;BME280;29078;41.932;25.554;2023-03-21T01:23:40;99481.31;;;10.91;53.66
43488;BME280;29078;41.932;25.554;2023-03-21T01:26:07;99483.50;;;10.87;52.94
43488;BME280;29078;41.932;25.554;2023-03-21T01:28:33;99484.31;;;10.88;52.93
43488;BME280;29078;41.932;25.554;2023-03-21T01:31:00;99473.28;;;10.84;53.02
43488;BME280;29078;41.932;25.554;2023-03-21T01:33:26;99427.75;;;10.53;53.13
43488;BME280;29078;41.932;25.554;2023-03-21T01:35:52;99483.22;;;10.82;54.02
43488;BME280;29078;41.932;25.554;2023-03-21T01:38:18;99480.13;;;10.78;54.06
43488;BME280;29078;41.932;25.554;2023-03-21T01:40:45;99468.56;;;10.79;53.76
43488;BME280;29078;41.932;25.554;2023-03-21T01:46:11;99464.38;;;10.85;53.82
43488;BME280;29078;41.932;25.554;2023-03-21T01:48:50;99467.66;;;10.87;53.23
43488;BME280;29078;41.932;25.554;2023-03-21T01:51:19;99399.06;;;10.49;54.03
43488;BME280;29078;41.932;25.554;2023-03-21T01:53:46;99436.03;;;10.79;54.10
43488;BME280;29078;41.932;25.554;2023-03-21T01:58:44;99439.22;;;10.89;53.31
43488;BME280;29078;41.932;25.554;2023-03-21T02:01:10;99362.72;;;10.37;53.88
43488;BME280;29078;41.932;25.554;2023-03-21T02:03:39;99449.59;;;10.91;53.83
43488;BME280;29078;41.932;25.554;2023-03-21T02:06:39;99447.34;;;10.88;53.71
43488;BME280;29078;41.932;25.554;2023-03-21T02:09:05;99446.06;;;10.83;53.94
43488;BME280;29078;41.932;25.554;2023-03-21T02:11:33;99446.41;;;10.80;54.25
43488;BME280;29078;41.932;25.554;2023-03-21T02:14:00;99425.75;;;10.69;54.79
43488;BME280;29078;41.932;25.554;2023-03-21T02:16:40;99366.25;;;10.29;54.81
43488;BME280;29078;41.932;25.554;2023-03-21T02:27:33;99442.50;;;10.76;54.17
43488;BME280;29078;41.932;25.554;2023-03-21T02:38:39;99435.66;;;10.67;55.11
43488;BME280;29078;41.932;25.554;2023-03-21T02:43:46;99436.03;;;10.64;54.75
43488;BME280;29078;41.932;25.554;2023-03-21T02:46:19;99426.66;;;10.62;55.07
43488;BME280;29078;41.932;25.554;2023-03-21T02:51:43;99367.16;;;10.22;54.58
43488;BME280;29078;41.932;25.554;2023-03-21T02:54:13;99333.63;;;10.07;54.84
43488;BME280;29078;41.932;25.554;2023-03-21T02:56:40;99428.94;;;10.65;54.74
43488;BME280;29078;41.932;25.554;2023-03-21T02:59:07;99311.78;;;9.99;55.38
43488;BME280;29078;41.932;25.554;2023-03-21T03:01:33;99347.50;;;10.24;55.32
43488;BME280;29078;41.932;25.554;2023-03-21T03:03:59;99421.91;;;10.72;54.95
43488;BME280;29078;41.932;25.554;2023-03-21T03:06:29;99417.81;;;10.69;55.11
43488;BME280;29078;41.932;25.554;2023-03-21T03:20:01;99416.09;;;10.76;55.35
43488;BME280;29078;41.932;25.554;2023-03-21T03:22:48;99417.56;;;10.79;55.79
43488;BME280;29078;41.932;25.554;2023-03-21T03:25:31;99377.41;;;10.54;55.25
43488;BME280;29078;41.932;25.554;2023-03-21T03:28:03;99410.72;;;10.85;55.58
43488;BME280;29078;41.932;25.554;2023-03-21T03:30:30;99420.91;;;10.88;55.26
43488;BME280;29078;41.932;25.554;2023-03-21T03:32:58;99381.13;;;10.60;55.56
43488;BME280;29078;41.932;25.554;2023-03-21T03:35:26;99423.75;;;10.86;55.51
43488;BME280;29078;41.932;25.554;2023-03-21T03:37:55;99344.53;;;10.42;55.70
43488;BME280;29078;41.932;25.554;2023-03-21T03:40:45;99336.13;;;10.38;55.79
43488;BME280;29078;41.932;25.554;2023-03-21T03:43:18;99413.63;;;10.90;55.32
43488;BME280;29078;41.932;25.554;2023-03-21T03:45:53;99433.03;;;10.97;55.49
43488;BME280;29078;41.932;25.554;2023-03-21T03:48:54;99426.56;;;10.99;55.28
43488;BME280;29078;41.932;25.554;2023-03-21T03:51:30;99417.53;;;10.94;55.11
43488;BME280;29078;41.932;25.554;2023-03-21T03:54:02;99435.66;;;10.97;54.97
43488;BME280;29078;41.932;25.554;2023-03-21T03:56:28;99369.66;;;10.53;55.45
43488;BME280;29078;41.932;25.554;2023-03-21T03:58:55;99443.78;;;10.95;54.94
43488;BME280;29078;41.932;25.554;2023-03-21T04:01:20;99354.78;;;10.37;54.95
43488;BME280;29078;41.932;25.554;2023-03-21T04:03:47;99370.94;;;10.42;55.09
43488;BME280;29078;41.932;25.554;2023-03-21T04:06:16;99438.31;;;10.82;55.02
43488;BME280;29078;41.932;25.554;2023-03-21T04:08:42;99377.38;;;10.39;55.41
43488;BME280;29078;41.932;25.554;2023-03-21T04:11:09;99423.56;;;10.58;55.43
43488;BME280;29078;41.932;25.554;2023-03-21T04:13:35;99438.94;;;10.55;55.60
43488;BME280;29078;41.932;25.554;2023-03-21T04:16:00;99429.91;;;10.49;55.84
43488;BME280;29078;41.932;25.554;2023-03-21T04:18:26;99442.75;;;10.52;55.83
43488;BME280;29078;41.932;25.554;2023-03-21T04:20:52;99389.91;;;10.23;55.90
43488;BME280;29078;41.932;25.554;2023-03-21T04:23:18;99435.66;;;10.53;56.08
43488;BME280;29078;41.932;25.554;2023-03-21T04:25:45;99420.50;;;10.32;56.70
43488;BME280;29078;41.932;25.554;2023-03-21T04:28:11;99445.94;;;10.47;56.25
43488;BME280;29078;41.932;25.554;2023-03-21T04:30:37;99440.84;;;10.46;56.04
43488;BME280;29078;41.932;25.554;2023-03-21T04:33:03;99451.31;;;10.54;56.25
43488;BME280;29078;41.932;25.554;2023-03-21T04:35:29;99359.53;;;10.04;56.18
43488;BME280;29078;41.932;25.554;2023-03-21T04:37:55;99422.72;;;10.43;55.80
43488;BME280;29078;41.932;25.554;2023-03-21T04:40:21;99446.22;;;10.67;55.69
43488;BME280;29078;41.932;25.554;2023-03-21T04:42:47;99445.88;;;10.70;55.73
43488;BME280;29078;41.932;25.554;2023-03-21T04:45:14;99450.34;;;10.70;55.96
43488;BME280;29078;41.932;25.554;2023-03-21T04:47:40;99362.22;;;10.18;55.71
43488;BME280;29078;41.932;25.554;2023-03-21T04:50:08;99464.81;;;10.74;56.03
43488;BME280;29078;41.932;25.554;2023-03-21T04:52:33;99390.41;;;10.41;55.43
43488;BME280;29078;41.932;25.554;2023-03-21T04:54:59;99379.09;;;10.32;56.54
43488;BME280;29078;41.932;25.554;2023-03-21T04:57:25;99394.69;;;10.42;56.27
43488;BME280;29078;41.932;25.554;2023-03-21T04:59:51;99379.91;;;10.33;56.03
43488;BME280;29078;41.932;25.554;2023-03-21T05:02:16;99368.25;;;10.27;56.76
43488;BME280;29078;41.932;25.554;2023-03-21T05:04:42;99366.63;;;10.26;56.98
43488;BME280;29078;41.932;25.554;2023-03-21T05:07:08;99445.88;;;10.70;56.82
43488;BME280;29078;41.932;25.554;2023-03-21T05:09:33;99397.63;;;10.24;56.76
43488;BME280;29078;41.932;25.554;2023-03-21T05:11:58;99441.59;;;10.69;56.96
43488;BME280;29078;41.932;25.554;2023-03-21T05:14:25;99457.16;;;10.79;57.42
43488;BME280;29078;41.932;25.554;2023-03-21T05:16:51;99447.69;;;10.85;56.86
43488;BME280;29078;41.932;25.554;2023-03-21T05:19:25;99372.25;;;10.38;56.83
43488;BME280;29078;41.932;25.554;2023-03-21T05:22:06;99388.88;;;10.46;56.77
43488;BME280;29078;41.932;25.554;2023-03-21T05:24:32;99376.66;;;10.45;57.25
43488;BME280;29078;41.932;25.554;2023-03-21T05:26:59;99410.44;;;10.65;56.82
43488;BME280;29078;41.932;25.554;2023-03-21T05:29:32;99471.00;;;10.96;56.70
43488;BME280;29078;41.932;25.554;2023-03-21T05:31:59;99458.25;;;10.85;57.17
43488;BME280;29078;41.932;25.554;2023-03-21T05:34:25;99486.84;;;10.81;56.99
43488;BME280;29078;41.932;25.554;2023-03-21T05:36:51;99485.03;;;10.81;56.74
43488;BME280;29078;41.932;25.554;2023-03-21T05:39:16;99414.09;;;10.26;57.12
43488;BME280;29078;41.932;25.554;2023-03-21T05:41:42;99395.47;;;10.28;57.25
43488;BME280;29078;41.932;25.554;2023-03-21T05:44:07;99476.19;;;10.89;56.62
43488;BME280;29078;41.932;25.554;2023-03-21T05:46:32;99459.91;;;10.86;57.22
43488;BME280;29078;41.932;25.554;2023-03-21T05:48:58;99410.34;;;10.58;57.25
43488;BME280;29078;41.932;25.554;2023-03-21T05:51:23;99504.53;;;11.10;56.99
43488;BME280;29078;41.932;25.554;2023-03-21T05:53:49;99431.47;;;10.73;57.39
43488;BME280;29078;41.932;25.554;2023-03-21T05:56:14;99403.81;;;10.54;57.40
43488;BME280;29078;41.932;25.554;2023-03-21T05:58:40;99494.81;;;11.25;57.71
43488;BME280;29078;41.932;25.554;2023-03-21T06:01:06;99490.63;;;11.31;56.98
43488;BME280;29078;41.932;25.554;2023-03-21T06:03:32;99474.03;;;11.22;57.46
43488;BME280;29078;41.932;25.554;2023-03-21T06:05:57;99459.19;;;11.21;57.38
43488;BME280;29078;41.932;25.554;2023-03-21T06:08:22;99453.25;;;11.19;57.50
43488;BME280;29078;41.932;25.554;2023-03-21T06:10:48;99472.22;;;11.23;57.64
43488;BME280;29078;41.932;25.554;2023-03-21T06:13:13;99424.91;;;10.98;57.69
43488;BME280;29078;41.932;25.554;2023-03-21T06:15:40;99477.41;;;11.31;58.29
43488;BME280;29078;41.932;25.554;2023-03-21T06:18:05;99494.88;;;11.46;58.15
43488;BME280;29078;41.932;25.554;2023-03-21T06:20:30;99483.66;;;11.44;57.91
43488;BME280;29078;41.932;25.554;2023-03-21T06:22:56;99472.72;;;11.48;58.16
43488;BME280;29078;41.932;25.554;2023-03-21T06:25:21;99390.22;;;11.01;58.55
43488;BME280;29078;41.932;25.554;2023-03-21T06:27:47;99485.63;;;11.72;57.21
43488;BME280;29078;41.932;25.554;2023-03-21T06:30:13;99417.69;;;11.36;57.62
43488;BME280;29078;41.932;25.554;2023-03-21T06:32:38;99494.34;;;11.87;57.68
43488;BME280;29078;41.932;25.554;2023-03-21T06:35:04;99408.06;;;11.50;57.53
43488;BME280;29078;41.932;25.554;2023-03-21T06:37:30;99493.75;;;12.06;57.58
43488;BME280;29078;41.932;25.554;2023-03-21T06:39:55;99476.44;;;12.04;57.12
43488;BME280;29078;41.932;25.554;2023-03-21T06:42:20;99389.69;;;11.63;57.36
43488;BME280;29078;41.932;25.554;2023-03-21T06:44:46;99462.31;;;12.18;57.18
43488;BME280;29078;41.932;25.554;2023-03-21T06:47:11;99411.72;;;11.49;56.95
43488;BME280;29078;41.932;25.554;2023-03-21T06:49:36;99434.84;;;11.98;57.38
43488;BME280;29078;41.932;25.554;2023-03-21T06:52:02;99461.03;;;12.35;57.13
43488;BME280;29078;41.932;25.554;2023-03-21T06:54:27;99428.91;;;12.17;57.59
43488;BME280;29078;41.932;25.554;2023-03-21T06:56:53;99447.81;;;12.35;57.31
43488;BME280;29078;41.932;25.554;2023-03-21T06:59:19;99469.56;;;12.59;57.47
43488;BME280;29078;41.932;25.554;2023-03-21T07:01:45;99452.22;;;12.56;57.71
43488;BME280;29078;41.932;25.554;2023-03-21T07:04:11;99378.81;;;12.16;57.09
43488;BME280;29078;41.932;25.554;2023-03-21T07:06:36;99350.63;;;12.01;57.48
43488;BME280;29078;41.932;25.554;2023-03-21T07:09:02;99380.13;;;12.26;57.43
43488;BME280;29078;41.932;25.554;2023-03-21T07:11:30;99489.47;;;13.04;57.20
43488;BME280;29078;41.932;25.554;2023-03-21T07:13:56;99424.84;;;12.70;56.88
43488;BME280;29078;41.932;25.554;2023-03-21T07:16:21;99488.34;;;13.20;57.05
43488;BME280;29078;41.932;25.554;2023-03-21T07:18:47;99417.78;;;12.84;56.83
43488;BME280;29078;41.932;25.554;2023-03-21T07:21:13;99441.38;;;13.14;56.62
43488;BME280;29078;41.932;25.554;2023-03-21T07:23:38;99392.94;;;12.85;56.43
43488;BME280;29078;41.932;25.554;2023-03-21T07:26:05;99481.78;;;13.50;56.70
43488;BME280;29078;41.932;25.554;2023-03-21T07:28:30;99408.56;;;13.15;56.08
43488;BME280;29078;41.932;25.554;2023-03-21T07:30:58;99479.34;;;13.55;56.34
43488;BME280;29078;41.932;25.554;2023-03-21T07:33:24;99478.13;;;13.58;56.50
43488;BME280;29078;41.932;25.554;2023-03-21T07:35:51;99394.47;;;13.08;56.56
43488;BME280;29078;41.932;25.554;2023-03-21T07:38:18;99464.03;;;13.51;56.33
43488;BME280;29078;41.932;25.554;2023-03-21T07:40:45;99473.88;;;13.63;56.62
43488;BME280;29078;41.932;25.554;2023-03-21T07:43:11;99444.44;;;13.52;56.39
43488;BME280;29078;41.932;25.554;2023-03-21T07:45:36;99410.28;;;13.29;56.52
43488;BME280;29078;41.932;25.554;2023-03-21T07:48:02;99493.50;;;13.76;56.55
43488;BME280;29078;41.932;25.554;2023-03-21T07:50:27;99444.44;;;13.52;56.56
43488;BME280;29078;41.932;25.554;2023-03-21T07:52:53;99462.06;;;13.73;56.15
43488;BME280;29078;41.932;25.554;2023-03-21T07:55:18;99472.09;;;13.90;56.27
43488;BME280;29078;41.932;25.554;2023-03-21T07:57:44;99398.75;;;13.50;56.12
43488;BME280;29078;41.932;25.554;2023-03-21T08:00:10;99418.16;;;13.63;55.99
43488;BME280;29078;41.932;25.554;2023-03-21T08:02:36;99398.97;;;13.55;55.84
43488;BME280;29078;41.932;25.554;2023-03-21T08:05:02;99427.56;;;13.79;55.92
43488;BME280;29078;41.932;25.554;2023-03-21T08:07:28;99482.19;;;14.15;55.54
43488;BME280;29078;41.932;25.554;2023-03-21T08:09:55;99450.47;;;14.00;55.57
43488;BME280;29078;41.932;25.554;2023-03-21T08:12:20;99474.44;;;14.33;55.35
43488;BME280;29078;41.932;25.554;2023-03-21T08:14:46;99378.59;;;13.75;55.28
43488;BME280;29078;41.932;25.554;2023-03-21T08:17:11;99420.25;;;14.01;55.07
43488;BME280;29078;41.932;25.554;2023-03-21T08:19:37;99408.44;;;14.17;55.21
43488;BME280;29078;41.932;25.554;2023-03-21T08:22:02;99412.53;;;14.26;55.05
43488;BME280;29078;41.932;25.554;2023-03-21T08:24:30;99462.19;;;14.58;54.98
43488;BME280;29078;41.932;25.554;2023-03-21T08:26:55;99400.28;;;14.31;55.04
43488;BME280;29078;41.932;25.554;2023-03-21T08:29:22;99458.88;;;14.83;54.96
43488;BME280;29078;41.932;25.554;2023-03-21T08:31:49;99454.41;;;14.90;54.73
43488;BME280;29078;41.932;25.554;2023-03-21T08:34:14;99446.84;;;14.87;54.47
43488;BME280;29078;41.932;25.554;2023-03-21T08:36:42;99333.69;;;14.26;54.07
43488;BME280;29078;41.932;25.554;2023-03-21T08:39:07;99433.53;;;14.93;53.86
43488;BME280;29078;41.932;25.554;2023-03-21T08:41:35;99387.59;;;14.60;53.44
43488;BME280;29078;41.932;25.554;2023-03-21T08:44:03;99442.50;;;15.06;52.97
43488;BME280;29078;41.932;25.554;2023-03-21T08:46:30;99445.28;;;15.24;52.54
43488;BME280;29078;41.932;25.554;2023-03-21T08:48:55;99385.22;;;15.03;52.73
43488;BME280;29078;41.932;25.554;2023-03-21T08:51:21;99349.09;;;14.89;52.39
43488;BME280;29078;41.932;25.554;2023-03-21T08:53:47;99435.94;;;15.60;52.42
43488;BME280;29078;41.932;25.554;2023-03-21T08:56:15;99434.91;;;15.67;52.42
43488;BME280;29078;41.932;25.554;2023-03-21T08:58:40;99361.81;;;15.25;52.01
43488;BME280;29078;41.932;25.554;2023-03-21T09:01:06;99423.28;;;15.48;52.13
43488;BME280;29078;41.932;25.554;2023-03-21T09:03:35;99384.78;;;15.57;52.29
43488;BME280;29078;41.932;25.554;2023-03-21T09:06:00;99343.16;;;15.32;52.34
43488;BME280;29078;41.932;25.554;2023-03-21T09:08:27;99398.38;;;15.81;52.34
43488;BME280;29078;41.932;25.554;2023-03-21T09:10:53;99418.06;;;16.05;52.26
43488;BME280;29078;41.932;25.554;2023-03-21T09:13:20;99358.44;;;15.81;51.80
43488;BME280;29078;41.932;25.554;2023-03-21T09:15:45;99416.81;;;16.32;51.93
43488;BME280;29078;41.932;25.554;2023-03-21T09:18:10;99361.88;;;16.13;51.53
43488;BME280;29078;41.932;25.554;2023-03-21T09:20:43;99419.06;;;16.60;51.11
43488;BME280;29078;41.932;25.554;2023-03-21T09:23:10;99354.47;;;16.40;50.72
43488;BME280;29078;41.932;25.554;2023-03-21T09:25:36;99353.38;;;16.47;50.26
43488;BME280;29078;41.932;25.554;2023-03-21T09:28:02;99374.75;;;16.66;50.18
43488;BME280;29078;41.932;25.554;2023-03-21T09:30:33;99322.53;;;16.33;50.48
43488;BME280;29078;41.932;25.554;2023-03-21T09:33:00;99399.25;;;16.74;50.60
43488;BME280;29078;41.932;25.554;2023-03-21T09:35:26;99359.66;;;16.53;50.68
43488;BME280;29078;41.932;25.554;2023-03-21T09:37:52;99414.53;;;16.86;50.53
43488;BME280;29078;41.932;25.554;2023-03-21T09:40:22;99327.69;;;16.53;50.36
43488;BME280;29078;41.932;25.554;2023-03-21T09:48:57;99391.13;;;16.88;50.33
43488;BME280;29078;41.932;25.554;2023-03-21T09:51:32;99348.78;;;16.55;49.90
43488;BME280;29078;41.932;25.554;2023-03-21T09:54:02;99388.38;;;16.94;50.10
43488;BME280;29078;41.932;25.554;2023-03-21T09:56:29;99388.81;;;16.91;50.07
43488;BME280;29078;41.932;25.554;2023-03-21T09:58:56;99378.00;;;16.86;50.19
43488;BME280;29078;41.932;25.554;2023-03-21T10:01:28;99376.59;;;16.83;50.42
43488;BME280;29078;41.932;25.554;2023-03-21T10:03:58;99387.03;;;16.85;50.31
43488;BME280;29078;41.932;25.554;2023-03-21T10:06:25;99378.81;;;16.87;50.34
43488;BME280;29078;41.932;25.554;2023-03-21T10:09:02;99376.53;;;16.72;50.52
43488;BME280;29078;41.932;25.554;2023-03-21T10:11:43;99393.84;;;16.81;50.53
43488;BME280;29078;41.932;25.554;2023-03-21T10:14:32;99362.50;;;16.58;50.17
43488;BME280;29078;41.932;25.554;2023-03-21T10:20:13;99409.47;;;16.77;50.60
43488;BME280;29078;41.932;25.554;2023-03-21T10:22:39;99396.75;;;16.79;49.94
43488;BME280;29078;41.932;25.554;2023-03-21T10:25:06;99388.53;;;16.81;50.37
43488;BME280;29078;41.932;25.554;2023-03-21T10:27:33;99384.50;;;16.72;50.38
43488;BME280;29078;41.932;25.554;2023-03-21T10:30:02;99320.44;;;16.42;50.05
43488;BME280;29078;41.932;25.554;2023-03-21T10:32:31;99387.47;;;16.82;50.04
43488;BME280;29078;41.932;25.554;2023-03-21T10:34:57;99378.00;;;16.86;49.99
43488;BME280;29078;41.932;25.554;2023-03-21T10:37:23;99346.38;;;16.71;49.98
43488;BME280;29078;41.932;25.554;2023-03-21T10:39:51;99307.63;;;16.50;49.77
43488;BME280;29078;41.932;25.554;2023-03-21T10:42:25;99274.66;;;16.27;50.12
43488;BME280;29078;41.932;25.554;2023-03-21T10:44:53;99364.81;;;16.91;50.17
43488;BME280;29078;41.932;25.554;2023-03-21T10:47:25;99275.13;;;16.42;50.00
43488;BME280;29078;41.932;25.554;2023-03-21T10:49:51;99331.41;;;16.89;49.87
43488;BME280;29078;41.932;25.554;2023-03-21T10:52:19;99319.13;;;16.88;49.96
43488;BME280;29078;41.932;25.554;2023-03-21T10:54:46;99335.47;;;17.09;49.71
43488;BME280;29078;41.932;25.554;2023-03-21T10:57:19;99331.31;;;17.13;49.50
43488;BME280;29078;41.932;25.554;2023-03-21T10:59:52;99292.94;;;16.96;49.38
43488;BME280;29078;41.932;25.554;2023-03-21T11:02:29;99328.09;;;17.23;49.14
43488;BME280;29078;41.932;25.554;2023-03-21T11:05:03;99316.41;;;17.24;49.07
43488;BME280;29078;41.932;25.554;2023-03-21T11:07:30;99295.38;;;16.98;48.72
43488;BME280;29078;41.932;25.554;2023-03-21T11:10:06;99256.09;;;17.05;48.69
43488;BME280;29078;41.932;25.554;2023-03-21T11:12:40;99315.97;;;17.39;48.77
43488;BME280;29078;41.932;25.554;2023-03-21T11:15:31;99302.19;;;17.42;48.46
43488;BME280;29078;41.932;25.554;2023-03-21T11:17:58;99313.00;;;17.47;48.30
43488;BME280;29078;41.932;25.554;2023-03-21T11:20:25;99290.69;;;17.41;48.33
43488;BME280;29078;41.932;25.554;2023-03-21T11:22:54;99297.09;;;17.52;48.28
43488;BME280;29078;41.932;25.554;2023-03-21T11:27:49;99227.88;;;17.15;47.98
43488;BME280;29078;41.932;25.554;2023-03-21T11:30:21;99303.19;;;17.71;47.92
43488;BME280;29078;41.932;25.554;2023-03-21T11:32:53;99275.06;;;17.57;47.96
43488;BME280;29078;41.932;25.554;2023-03-21T11:35:22;99301.13;;;17.73;47.93
43488;BME280;29078;41.932;25.554;2023-03-21T11:37:54;99297.41;;;17.74;48.18
43488;BME280;29078;41.932;25.554;2023-03-21T11:40:26;99230.81;;;17.37;48.22
43488;BME280;29078;41.932;25.554;2023-03-21T11:43:25;99259.16;;;17.50;48.29
43488;BME280;29078;41.932;25.554;2023-03-21T11:46:11;99230.22;;;17.35;48.44
43488;BME280;29078;41.932;25.554;2023-03-21T11:48:40;99262.28;;;17.59;48.60
43488;BME280;29078;41.932;25.554;2023-03-21T11:53:58;99249.75;;;17.59;48.36
43488;BME280;29078;41.932;25.554;2023-03-21T11:56:38;99250.78;;;17.58;48.40
43488;BME280;29078;41.932;25.554;2023-03-21T12:02:02;99252.13;;;17.67;48.11
43488;BME280;29078;41.932;25.554;2023-03-21T12:09:37;99240.50;;;17.73;47.89
43488;BME280;29078;41.932;25.554;2023-03-21T12:18:00;99234.94;;;17.75;47.97
43488;BME280;29078;41.932;25.554;2023-03-21T12:28:59;99231.00;;;18.01;47.39
43488;BME280;29078;41.932;25.554;2023-03-21T12:31:48;99229.84;;;18.08;47.15
43488;BME280;29078;41.932;25.554;2023-03-21T12:37:09;99208.69;;;18.19;47.00
43488;BME280;29078;41.932;25.554;2023-03-21T12:39:44;99108.50;;;17.58;46.72
43488;BME280;29078;41.932;25.554;2023-03-21T12:44:50;99190.00;;;18.07;46.76
43488;BME280;29078;41.932;25.554;2023-03-21T12:47:27;99125.22;;;17.76;46.71
43488;BME280;29078;41.932;25.554;2023-03-21T12:50:21;99192.72;;;18.35;46.59
43488;BME280;29078;41.932;25.554;2023-03-21T12:52:56;99149.56;;;18.15;46.49
43488;BME280;29078;41.932;25.554;2023-03-21T12:55:27;99109.19;;;18.00;46.20
43488;BME280;29078;41.932;25.554;2023-03-21T12:57:59;99180.47;;;18.51;45.96
43488;BME280;29078;41.932;25.554;2023-03-21T13:03:13;99173.63;;;18.84;45.41
43488;BME280;29078;41.932;25.554;2023-03-21T13:05:58;99164.16;;;18.93;45.26
43488;BME280;29078;41.932;25.554;2023-03-21T13:08:29;99140.88;;;18.77;44.91
43488;BME280;29078;41.932;25.554;2023-03-21T13:10:57;99124.41;;;18.56;44.71
43488;BME280;29078;41.932;25.554;2023-03-21T13:13:32;99156.34;;;18.75;44.79
43488;BME280;29078;41.932;25.554;2023-03-21T13:21:13;99097.63;;;18.39;45.15
43488;BME280;29078;41.932;25.554;2023-03-21T13:24:01;99155.88;;;18.78;44.84
43488;BME280;29078;41.932;25.554;2023-03-21T13:26:39;99111.84;;;18.57;44.93
43488;BME280;29078;41.932;25.554;2023-03-21T13:29:13;99139.88;;;18.66;44.66
43488;BME280;29078;41.932;25.554;2023-03-21T13:31:44;99159.69;;;18.82;44.75
43488;BME280;29078;41.932;25.554;2023-03-21T13:34:12;99154.81;;;18.79;44.77
43488;BME280;29078;41.932;25.554;2023-03-21T13:36:38;99155.53;;;18.74;44.97
43488;BME280;29078;41.932;25.554;2023-03-21T13:39:17;99143.47;;;18.71;45.12
43488;BME280;29078;41.932;25.554;2023-03-21T13:41:44;99069.06;;;18.12;45.31
43488;BME280;29078;41.932;25.554;2023-03-21T13:46:52;99133.84;;;18.59;45.56
43488;BME280;29078;41.932;25.554;2023-03-21T13:49:29;99130.00;;;18.55;45.83
43488;BME280;29078;41.932;25.554;2023-03-21T13:51:56;99041.97;;;17.91;45.61
43488;BME280;29078;41.932;25.554;2023-03-21T13:56:59;99095.41;;;18.20;45.73
43488;BME280;29078;41.932;25.554;2023-03-21T13:59:38;99131.91;;;18.42;45.70
43488;BME280;29078;41.932;25.554;2023-03-21T14:04:44;99106.38;;;18.35;45.84
43488;BME280;29078;41.932;25.554;2023-03-21T14:07:28;99060.84;;;18.01;45.74
43488;BME280;29078;41.932;25.554;2023-03-21T14:09:59;99068.09;;;18.18;45.93
43488;BME280;29078;41.932;25.554;2023-03-21T14:12:28;99111.44;;;18.48;45.99
43488;BME280;29078;41.932;25.554;2023-03-21T14:15:00;99101.88;;;18.52;46.16
43488;BME280;29078;41.932;25.554;2023-03-21T14:17:30;99114.69;;;18.50;46.48
43488;BME280;29078;41.932;25.554;2023-03-21T14:20:07;99103.25;;;18.55;46.20
43488;BME280;29078;41.932;25.554;2023-03-21T14:22:37;99057.84;;;18.26;46.23
43488;BME280;29078;41.932;25.554;2023-03-21T14:25:06;99108.03;;;18.53;45.84
43488;BME280;29078;41.932;25.554;2023-03-21T14:27:35;99105.28;;;18.48;45.97
43488;BME280;29078;41.932;25.554;2023-03-21T14:30:03;99050.44;;;18.17;45.53
43488;BME280;29078;41.932;25.554;2023-03-21T14:32:29;99057.94;;;18.31;45.19
43488;BME280;29078;41.932;25.554;2023-03-21T14:34:58;99108.59;;;18.66;44.52